Time;durP1;ratioP1;P1;durP2;ratioP2;P2;SDS_P1;SDS_P2;PMS_P1;PMS_P2;Temp;Humidity;BMP_temperature;BMP_pressure;BME280_temperature;BME280_humidity;BME280_pressure;Samples;Min_cycle;Max_cycle;Signal;HPM_P1;HPM_P2
2023/11/09 00:00:34;;;;;;;6.78;4.38;;;7.00;99.90;;;;;;2074827;28;20032;-76
2023/11/09 00:01:34;;;;;;;8.07;4.15;;;7.00;99.90;;;;;;2057477;28;20038;-76
2023/11/09 00:02:35;;;;;;;9.68;4.15;;;7.00;99.90;;;;;;2057929;28;20027;-75
2023/11/09 00:03:36;;;;;;;8.07;4.15;;;7.00;99.90;;;;;;2062340;28;20033;-76
2023/11/09 00:04:37;;;;;;;6.70;4.25;;;7.10;99.90;;;;;;2061554;28;20072;-75
2023/11/09 00:05:38;;;;;;;9.05;4.35;;;7.10;99.90;;;;;;2071366;28;20029;-75
2023/11/09 00:06:39;;;;;;;7.53;4.28;;;7.00;99.90;;;;;;2086867;28;20083;-76
2023/11/09 00:07:39;;;;;;;7.40;4.28;;;7.00;99.90;;;;;;2078397;28;20487;-76
2023/11/09 00:08:43;;;;;;;7.70;4.10;;;7.00;99.90;;;;;;2074909;28;20029;-76
2023/11/09 00:09:44;;;;;;;5.68;4.07;;;7.00;99.90;;;;;;2074786;28;20033;-76
2023/11/09 00:10:44;;;;;;;6.03;3.83;;;7.00;99.90;;;;;;2067685;28;20072;-76
2023/11/09 00:11:46;;;;;;;8.10;3.70;;;6.90;99.90;;;;;;2075875;28;20060;-76
2023/11/09 00:12:50;;;;;;;6.28;4.18;;;6.90;99.90;;;;;;2085940;28;20024;-76
2023/11/09 00:13:51;;;;;;;6.60;4.10;;;6.90;99.90;;;;;;2083711;28;20114;-76
2023/11/09 00:14:52;;;;;;;7.97;4.00;;;6.90;99.90;;;;;;2089149;28;20062;-76
2023/11/09 00:15:55;;;;;;;8.50;4.25;;;6.90;99.90;;;;;;2086501;28;20526;-76
2023/11/09 00:16:56;;;;;;;9.85;4.30;;;6.90;99.90;;;;;;2087257;28;20057;-76
2023/11/09 00:17:56;;;;;;;6.68;4.15;;;6.90;99.90;;;;;;2085504;28;20085;-76
2023/11/09 00:18:57;;;;;;;10.25;4.25;;;6.90;99.90;;;;;;2083329;28;20484;-76
2023/11/09 00:19:58;;;;;;;7.40;4.40;;;6.90;99.90;;;;;;2084809;28;20032;-76
2023/11/09 00:20:59;;;;;;;7.32;4.22;;;6.90;99.90;;;;;;2083478;28;20037;-76
2023/11/09 00:21:59;;;;;;;6.07;4.28;;;6.90;99.90;;;;;;2083822;28;20510;-76
2023/11/09 00:23:00;;;;;;;8.88;4.60;;;6.90;99.90;;;;;;2083623;28;20021;-77
2023/11/09 00:24:03;;;;;;;8.85;4.10;;;6.90;99.90;;;;;;2077744;28;20020;-76
2023/11/09 00:25:04;;;;;;;10.25;4.53;;;6.90;99.90;;;;;;2074759;28;20510;-77
2023/11/09 00:26:06;;;;;;;10.02;4.30;;;7.00;99.90;;;;;;2087079;28;20017;-77
2023/11/09 00:27:06;;;;;;;7.80;4.30;;;6.90;99.90;;;;;;2087275;28;20129;-76
2023/11/09 00:28:08;;;;;;;8.88;4.65;;;7.00;99.90;;;;;;2074868;28;20161;-76
2023/11/09 00:29:08;;;;;;;7.05;4.72;;;7.00;99.90;;;;;;2077924;28;20041;-76
2023/11/09 00:30:09;;;;;;;8.27;4.22;;;6.90;99.90;;;;;;2081477;28;20029;-76
2023/11/09 00:31:10;;;;;;;11.63;5.57;;;7.00;99.90;;;;;;2075064;28;20511;-75
2023/11/09 00:32:11;;;;;;;9.05;4.97;;;6.90;99.90;;;;;;2078001;28;20026;-76
2023/11/09 00:33:12;;;;;;;9.45;4.50;;;6.90;99.90;;;;;;2085894;28;20079;-75
2023/11/09 00:34:13;;;;;;;9.35;4.43;;;6.90;99.90;;;;;;2087043;28;20020;-75
2023/11/09 00:35:13;;;;;;;8.57;4.45;;;7.00;99.90;;;;;;2074709;28;20417;-75
2023/11/09 00:36:14;;;;;;;8.25;4.65;;;7.00;99.90;;;;;;2069866;28;20060;-77
2023/11/09 00:37:15;;;;;;;8.00;4.85;;;7.00;99.90;;;;;;2053035;28;20030;-75
2023/11/09 00:38:16;;;;;;;7.30;4.47;;;7.00;99.90;;;;;;2069022;28;20019;-77
2023/11/09 00:39:17;;;;;;;8.75;4.20;;;7.00;99.90;;;;;;2072844;28;20041;-76
2023/11/09 00:40:30;;;;;;;12.73;4.57;;;7.10;99.90;;;;;;2074440;28;20038;-79
2023/11/09 00:41:31;;;;;;;9.35;4.60;;;7.00;99.90;;;;;;2078338;28;20028;-77
2023/11/09 00:42:32;;;;;;;12.98;5.00;;;7.00;99.90;;;;;;2077525;28;20037;-77
2023/11/09 00:43:33;;;;;;;17.40;6.78;;;7.00;99.90;;;;;;2066216;28;20026;-76
2023/11/09 00:44:34;;;;;;;10.73;5.00;;;7.00;99.90;;;;;;2078243;28;20446;-76
2023/11/09 00:45:35;;;;;;;9.27;4.65;;;7.00;99.90;;;;;;2078529;28;20029;-76
2023/11/09 00:46:35;;;;;;;8.32;4.85;;;7.00;99.90;;;;;;2077681;28;20623;-77
2023/11/09 00:47:36;;;;;;;8.00;4.57;;;7.00;99.90;;;;;;2074452;28;20041;-77
2023/11/09 00:48:36;;;;;;;10.05;4.85;;;7.00;99.90;;;;;;2078396;28;20033;-75
2023/11/09 00:49:38;;;;;;;8.70;4.30;;;7.00;99.90;;;;;;2070387;28;20025;-76
2023/11/09 00:50:40;;;;;;;6.78;4.22;;;7.00;99.90;;;;;;2058249;28;20324;-75
2023/11/09 00:51:40;;;;;;;19.73;6.97;;;7.00;99.90;;;;;;2063140;28;20057;-74
2023/11/09 00:52:41;;;;;;;10.98;4.90;;;7.00;99.90;;;;;;2066893;28;20026;-75
2023/11/09 00:53:42;;;;;;;7.00;4.40;;;6.90;99.90;;;;;;2067255;28;20049;-75
2023/11/09 00:54:42;;;;;;;9.98;4.55;;;6.90;99.90;;;;;;2058936;28;20034;-75
2023/11/09 00:55:43;;;;;;;8.32;4.53;;;6.90;99.90;;;;;;2057787;28;20126;-75
2023/11/09 00:56:43;;;;;;;7.65;4.32;;;6.90;99.90;;;;;;2078031;28;20025;-76
2023/11/09 00:57:44;;;;;;;8.85;5.15;;;6.90;99.90;;;;;;2083259;28;20433;-76
2023/11/09 00:58:45;;;;;;;7.78;4.80;;;6.90;99.90;;;;;;2073812;28;20040;-76
2023/11/09 00:59:47;;;;;;;9.65;5.25;;;6.90;99.90;;;;;;2078518;28;20028;-76
2023/11/09 01:00:48;;;;;;;12.23;5.28;;;6.90;99.90;;;;;;2075847;28;20029;-75
2023/11/09 01:01:49;;;;;;;8.40;5.00;;;6.90;99.90;;;;;;2076854;28;20460;-76
2023/11/09 01:02:51;;;;;;;9.02;5.13;;;6.90;99.90;;;;;;2077572;28;20449;-75
2023/11/09 01:03:52;;;;;;;10.55;5.10;;;6.90;99.90;;;;;;2076109;28;20044;-76
2023/11/09 01:04:53;;;;;;;9.73;5.10;;;6.90;99.90;;;;;;2075991;28;20499;-75
2023/11/09 01:05:54;;;;;;;9.50;4.60;;;6.90;99.90;;;;;;2075024;28;20044;-75
2023/11/09 01:06:55;;;;;;;9.10;4.95;;;6.90;99.90;;;;;;2077151;28;20037;-75
2023/11/09 01:07:55;;;;;;;9.52;4.72;;;6.90;99.90;;;;;;2087327;28;20308;-75
2023/11/09 01:08:56;;;;;;;9.35;4.90;;;6.90;99.90;;;;;;2075693;28;20029;-75
2023/11/09 01:09:57;;;;;;;8.68;5.18;;;6.90;99.90;;;;;;2070304;28;20038;-75
2023/11/09 01:10:57;;;;;;;13.93;6.72;;;6.80;99.90;;;;;;2076124;28;20145;-76
2023/11/09 01:11:58;;;;;;;19.35;7.72;;;6.80;99.90;;;;;;2083925;28;20025;-76
2023/11/09 01:13:01;;;;;;;15.18;6.55;;;6.80;99.90;;;;;;2087217;28;20032;-75
2023/11/09 01:14:01;;;;;;;12.05;6.57;;;6.80;99.90;;;;;;2076594;28;20115;-75
2023/11/09 01:15:02;;;;;;;10.80;6.38;;;6.80;99.90;;;;;;2066033;28;20057;-76
2023/11/09 01:16:04;;;;;;;10.73;5.60;;;6.80;99.90;;;;;;2080794;28;20127;-76
2023/11/09 01:17:06;;;;;;;9.35;4.80;;;6.80;99.90;;;;;;2069661;28;20759;-76
2023/11/09 01:18:10;;;;;;;9.23;4.93;;;6.80;99.90;;;;;;2066632;28;20076;-76
2023/11/09 01:19:10;;;;;;;11.43;5.90;;;6.80;99.90;;;;;;2065815;28;20396;-76
2023/11/09 01:20:11;;;;;;;9.27;5.40;;;6.80;99.90;;;;;;2069832;28;20025;-76
2023/11/09 01:21:12;;;;;;;10.18;5.57;;;6.80;99.90;;;;;;2062722;28;20504;-75
2023/11/09 01:22:12;;;;;;;15.10;6.05;;;6.80;99.90;;;;;;2069391;28;20037;-76
2023/11/09 01:23:13;;;;;;;14.52;6.20;;;6.80;99.90;;;;;;2075552;28;20025;-76
2023/11/09 01:24:13;;;;;;;9.70;5.30;;;6.80;99.90;;;;;;2083966;28;20037;-76
2023/11/09 01:25:14;;;;;;;8.60;5.38;;;6.80;99.90;;;;;;2075324;28;20447;-76
2023/11/09 01:26:15;;;;;;;8.52;5.18;;;6.80;99.90;;;;;;2068198;28;20033;-76
2023/11/09 01:27:16;;;;;;;9.57;4.95;;;6.80;99.90;;;;;;2074228;28;20041;-75
2023/11/09 01:28:16;;;;;;;8.82;4.90;;;6.80;99.90;;;;;;2083143;28;20059;-75
2023/11/09 01:29:18;;;;;;;7.53;5.03;;;6.80;99.90;;;;;;2083415;28;20032;-76
2023/11/09 01:30:20;;;;;;;10.32;5.57;;;6.80;99.90;;;;;;2086505;28;20029;-76
2023/11/09 01:31:21;;;;;;;9.70;5.22;;;6.80;99.90;;;;;;2075608;28;20032;-75
2023/11/09 01:32:22;;;;;;;8.68;5.00;;;6.80;99.90;;;;;;2075439;28;20048;-75
2023/11/09 01:33:22;;;;;;;12.00;5.78;;;6.90;99.90;;;;;;2076598;28;20025;-75
2023/11/09 01:34:23;;;;;;;13.38;7.07;;;6.80;99.90;;;;;;2087310;28;20474;-75
2023/11/09 01:35:24;;;;;;;17.08;7.50;;;6.80;99.90;;;;;;2076495;28;20538;-76
2023/11/09 01:36:24;;;;;;;13.05;6.93;;;6.90;99.90;;;;;;2067098;28;20063;-76
2023/11/09 01:37:25;;;;;;;11.68;5.55;;;6.90;99.90;;;;;;2075124;28;20616;-76
2023/11/09 01:38:25;;;;;;;10.80;5.47;;;6.90;99.90;;;;;;2070010;28;20739;-76
2023/11/09 01:39:26;;;;;;;9.02;5.22;;;6.90;99.90;;;;;;2069759;28;20983;-76
2023/11/09 01:40:27;;;;;;;10.20;5.63;;;7.00;99.90;;;;;;2076347;28;20029;-76
2023/11/09 01:41:27;;;;;;;9.52;5.65;;;6.90;99.90;;;;;;2067538;28;20060;-76
2023/11/09 01:42:28;;;;;;;12.20;5.60;;;7.00;99.90;;;;;;2063267;28;20458;-76
2023/11/09 01:43:29;;;;;;;11.55;5.68;;;7.00;99.90;;;;;;2076759;28;20044;-76
2023/11/09 01:44:30;;;;;;;9.68;5.50;;;7.00;99.90;;;;;;2084550;28;20029;-76
2023/11/09 01:45:30;;;;;;;8.55;5.25;;;6.90;99.90;;;;;;2087048;28;20430;-77
2023/11/09 01:46:31;;;;;;;10.73;5.80;;;6.90;99.90;;;;;;2085900;28;20027;-76
2023/11/09 01:47:32;;;;;;;15.98;7.50;;;6.80;99.90;;;;;;2084017;28;20025;-76
2023/11/09 01:48:34;;;;;;;15.45;6.43;;;6.80;99.90;;;;;;2078177;28;20025;-77
2023/11/09 01:49:36;;;;;;;10.18;5.75;;;6.80;99.90;;;;;;2077885;28;20025;-76
2023/11/09 01:50:37;;;;;;;11.05;6.20;;;6.80;99.90;;;;;;2086373;28;20017;-75
2023/11/09 01:51:39;;;;;;;11.38;6.45;;;6.80;99.90;;;;;;2083475;28;20126;-75
2023/11/09 01:52:39;;;;;;;11.32;6.20;;;6.80;99.90;;;;;;2077788;28;20037;-76
2023/11/09 01:53:40;;;;;;;9.65;5.75;;;6.90;99.90;;;;;;2078152;28;20037;-75
2023/11/09 01:54:41;;;;;;;11.82;6.00;;;6.90;99.90;;;;;;2074286;28;20472;-75
2023/11/09 01:55:42;;;;;;;10.65;6.10;;;6.90;99.90;;;;;;2068194;28;20030;-76
2023/11/09 01:56:43;;;;;;;11.55;5.78;;;6.90;99.90;;;;;;2078084;28;20533;-76
2023/11/09 01:57:44;;;;;;;9.73;5.90;;;6.90;99.90;;;;;;2074701;28;20092;-76
2023/11/09 01:58:46;;;;;;;10.13;5.50;;;6.90;99.90;;;;;;2069587;28;20022;-76
2023/11/09 01:59:49;;;;;;;9.82;5.95;;;6.90;99.90;;;;;;2077043;28;20033;-75
2023/11/09 02:00:51;;;;;;;11.98;5.82;;;6.80;99.90;;;;;;2077872;28;20024;-75
2023/11/09 02:01:52;;;;;;;10.18;5.70;;;6.80;99.90;;;;;;2067686;28;20465;-76
2023/11/09 02:02:54;;;;;;;9.95;5.47;;;6.80;99.90;;;;;;2076537;28;20041;-76
2023/11/09 02:03:55;;;;;;;10.25;5.85;;;6.80;99.90;;;;;;2086279;28;20021;-76
2023/11/09 02:04:57;;;;;;;8.15;5.25;;;6.70;99.90;;;;;;2075897;28;20107;-76
2023/11/09 02:05:58;;;;;;;12.70;6.07;;;6.80;99.90;;;;;;2062660;28;20263;-75
2023/11/09 02:06:59;;;;;;;10.20;5.75;;;6.80;99.90;;;;;;2076367;28;20041;-76
2023/11/09 02:08:00;;;;;;;7.63;5.57;;;6.80;99.90;;;;;;2076822;28;20029;-76
2023/11/09 02:09:02;;;;;;;10.13;5.90;;;6.80;99.90;;;;;;2075831;28;20040;-75
2023/11/09 02:10:06;;;;;;;9.43;5.93;;;6.80;99.90;;;;;;2079630;28;20048;-77
2023/11/09 02:11:07;;;;;;;11.90;6.28;;;6.70;99.90;;;;;;2068210;28;20029;-75
2023/11/09 02:12:09;;;;;;;10.75;6.43;;;6.70;99.90;;;;;;2072403;28;20061;-75
2023/11/09 02:13:09;;;;;;;8.55;5.53;;;6.70;99.90;;;;;;2071872;28;20065;-75
2023/11/09 02:14:10;;;;;;;8.45;5.80;;;6.70;99.90;;;;;;2080591;28;20034;-75
2023/11/09 02:15:11;;;;;;;9.82;5.72;;;6.60;99.90;;;;;;2068274;28;20026;-75
2023/11/09 02:16:13;;;;;;;9.93;5.90;;;6.60;99.90;;;;;;2063274;28;20428;-75
2023/11/09 02:17:14;;;;;;;9.00;5.78;;;6.60;99.90;;;;;;2079479;28;20029;-76
2023/11/09 02:18:14;;;;;;;12.68;5.90;;;6.60;99.90;;;;;;2078741;28;20652;-76
2023/11/09 02:19:18;;;;;;;9.55;6.35;;;6.60;99.90;;;;;;2059922;28;20050;-76
2023/11/09 02:20:21;;;;;;;9.75;5.90;;;6.60;99.90;;;;;;2062281;28;20076;-75
2023/11/09 02:21:23;;;;;;;12.93;5.95;;;6.60;99.90;;;;;;2061684;28;20038;-76
2023/11/09 02:22:27;;;;;;;9.00;5.55;;;6.60;99.90;;;;;;2067822;28;20600;-75
2023/11/09 02:23:32;;;;;;;14.57;5.78;;;6.60;99.90;;;;;;2069999;28;20056;-75
2023/11/09 02:24:34;;;;;;;11.10;5.40;;;6.70;99.90;;;;;;2068964;28;20034;-75
2023/11/09 02:25:35;;;;;;;10.02;5.60;;;6.60;99.90;;;;;;2071338;28;20036;-75
2023/11/09 02:26:36;;;;;;;8.75;5.47;;;6.60;99.90;;;;;;2078868;28;20025;-75
2023/11/09 02:27:36;;;;;;;10.15;5.63;;;6.60;99.90;;;;;;2079277;28;20028;-76
2023/11/09 02:28:37;;;;;;;9.45;5.65;;;6.60;99.90;;;;;;2075807;28;20029;-76
2023/11/09 02:29:41;;;;;;;8.77;5.80;;;6.60;99.90;;;;;;2079286;28;20116;-75
2023/11/09 02:30:41;;;;;;;10.48;5.60;;;6.60;99.90;;;;;;2075491;28;20096;-76
2023/11/09 02:31:42;;;;;;;9.52;5.60;;;6.60;99.90;;;;;;2067475;28;20036;-76
2023/11/09 02:32:43;;;;;;;7.38;5.50;;;6.60;99.90;;;;;;2071095;28;20412;-76
2023/11/09 02:33:43;;;;;;;10.38;6.18;;;6.50;99.90;;;;;;2079055;28;20029;-76
2023/11/09 02:34:47;;;;;;;11.02;5.68;;;6.50;99.90;;;;;;2084866;28;20059;-76
2023/11/09 02:35:48;;;;;;;9.55;5.80;;;6.50;99.90;;;;;;2071414;28;20293;-76
2023/11/09 02:36:50;;;;;;;10.15;6.00;;;6.50;99.90;;;;;;2070371;28;20350;-76
2023/11/09 02:37:50;;;;;;;10.57;5.63;;;6.50;99.90;;;;;;2071182;28;20032;-76
2023/11/09 02:38:51;;;;;;;14.30;6.13;;;6.50;99.90;;;;;;2060300;28;20022;-76
2023/11/09 02:39:53;;;;;;;9.82;5.40;;;6.40;99.90;;;;;;2077992;28;20053;-76
2023/11/09 02:40:53;;;;;;;11.57;6.00;;;6.40;99.90;;;;;;2079203;28;20041;-76
2023/11/09 02:41:54;;;;;;;8.68;5.63;;;6.40;99.90;;;;;;2077150;28;20036;-76
2023/11/09 02:42:55;;;;;;;9.10;5.82;;;6.40;99.90;;;;;;2069500;28;20026;-76
2023/11/09 02:43:55;;;;;;;10.23;6.00;;;6.40;99.90;;;;;;2068425;28;20057;-77
2023/11/09 02:44:56;;;;;;;10.85;5.93;;;6.40;99.90;;;;;;2079123;28;20063;-76
2023/11/09 02:45:57;;;;;;;8.52;6.00;;;6.40;99.90;;;;;;2069062;28;20136;-76
2023/11/09 02:46:58;;;;;;;9.07;5.55;;;6.40;99.90;;;;;;2068755;28;20182;-76
2023/11/09 02:47:58;;;;;;;11.90;5.88;;;6.40;99.90;;;;;;2068171;28;20026;-76
2023/11/09 02:48:59;;;;;;;8.80;5.80;;;6.30;99.90;;;;;;2070801;28;20026;-76
2023/11/09 02:50:02;;;;;;;9.27;6.32;;;6.30;99.90;;;;;;2077522;28;20022;-76
2023/11/09 02:51:05;;;;;;;9.20;6.20;;;6.30;99.90;;;;;;2076041;28;20029;-75
2023/11/09 02:52:07;;;;;;;11.43;6.85;;;6.30;99.90;;;;;;2067369;28;20084;-75
2023/11/09 02:53:07;;;;;;;12.30;6.60;;;6.30;99.90;;;;;;2078593;28;20255;-75
2023/11/09 02:54:08;;;;;;;11.35;6.10;;;6.30;99.90;;;;;;2084666;28;20029;-76
2023/11/09 02:55:09;;;;;;;10.80;6.20;;;6.30;99.90;;;;;;2078865;28;20014;-75
2023/11/09 02:56:09;;;;;;;14.68;7.30;;;6.40;99.90;;;;;;2070384;28;20034;-75
2023/11/09 02:57:11;;;;;;;9.23;6.25;;;6.30;99.90;;;;;;2059239;28;20018;-75
2023/11/09 02:58:12;;;;;;;10.15;6.15;;;6.30;99.90;;;;;;2070969;28;20580;-74
2023/11/09 02:59:12;;;;;;;10.60;6.55;;;6.30;99.90;;;;;;2070723;28;20079;-76
2023/11/09 03:00:13;;;;;;;15.57;7.15;;;6.30;99.90;;;;;;2072550;28;20025;-77
2023/11/09 03:01:17;;;;;;;12.63;6.40;;;6.30;99.90;;;;;;2080070;28;20033;-76
2023/11/09 03:02:18;;;;;;;11.68;6.40;;;6.30;99.90;;;;;;2067031;28;20440;-76
2023/11/09 03:03:18;;;;;;;12.02;6.35;;;6.30;99.90;;;;;;2064023;28;20117;-76
2023/11/09 03:04:19;;;;;;;11.48;6.05;;;6.30;99.90;;;;;;2067158;28;20025;-76
2023/11/09 03:05:22;;;;;;;11.35;6.40;;;6.30;99.90;;;;;;2059525;28;20108;-76
2023/11/09 03:06:24;;;;;;;11.23;6.80;;;6.30;99.90;;;;;;2076549;28;20021;-76
2023/11/09 03:07:25;;;;;;;13.85;7.20;;;6.30;99.90;;;;;;2087035;28;20510;-76
2023/11/09 03:08:30;;;;;;;9.57;6.30;;;6.20;99.90;;;;;;2088198;28;20142;-76
2023/11/09 03:09:34;;;;;;;9.10;5.90;;;6.20;99.90;;;;;;2078975;28;20067;-76
2023/11/09 03:10:34;;;;;;;12.27;6.63;;;6.20;99.90;;;;;;2077279;28;20503;-76
2023/11/09 03:11:35;;;;;;;13.57;8.00;;;6.20;99.90;;;;;;2076202;28;20026;-76
2023/11/09 03:12:36;;;;;;;9.98;6.25;;;6.20;99.90;;;;;;2077548;28;20034;-76
2023/11/09 03:13:39;;;;;;;9.63;6.88;;;6.20;99.90;;;;;;2060035;28;21007;-76
2023/11/09 03:14:40;;;;;;;10.98;6.65;;;6.20;99.90;;;;;;2059458;28;20025;-76
2023/11/09 03:15:44;;;;;;;9.98;6.22;;;6.20;99.90;;;;;;2066233;28;20135;-76
2023/11/09 03:16:45;;;;;;;12.43;6.70;;;6.20;99.90;;;;;;2067141;28;20113;-76
2023/11/09 03:17:45;;;;;;;11.23;6.10;;;6.20;99.90;;;;;;2074629;28;20025;-76
2023/11/09 03:18:46;;;;;;;14.63;7.78;;;6.20;99.90;;;;;;2075229;28;20025;-76
2023/11/09 03:19:47;;;;;;;14.15;7.45;;;6.20;99.90;;;;;;2079183;28;20068;-76
2023/11/09 03:20:48;;;;;;;11.65;6.55;;;6.20;99.90;;;;;;2062423;28;20026;-75
2023/11/09 03:21:48;;;;;;;10.82;6.45;;;6.20;99.90;;;;;;2061996;28;20022;-75
2023/11/09 03:22:49;;;;;;;11.95;7.05;;;6.20;99.90;;;;;;2066670;28;20037;-76
2023/11/09 03:23:50;;;;;;;12.63;6.60;;;6.20;99.90;;;;;;2075130;28;20044;-75
2023/11/09 03:24:51;;;;;;;9.65;6.40;;;6.20;99.90;;;;;;2075504;28;20098;-76
2023/11/09 03:25:51;;;;;;;10.75;6.90;;;6.20;99.90;;;;;;2075531;28;20037;-76
2023/11/09 03:26:52;;;;;;;12.30;7.47;;;6.20;99.90;;;;;;2078419;28;20044;-76
2023/11/09 03:27:53;;;;;;;11.90;6.90;;;6.30;99.90;;;;;;2083887;28;20025;-76
2023/11/09 03:28:53;;;;;;;12.90;6.68;;;6.20;99.90;;;;;;2084552;28;20020;-75
2023/11/09 03:29:54;;;;;;;11.40;6.72;;;6.30;99.90;;;;;;2078270;28;20104;-75
2023/11/09 03:30:56;;;;;;;9.02;6.05;;;6.30;99.90;;;;;;2071043;28;20057;-75
2023/11/09 03:31:56;;;;;;;12.18;6.88;;;6.40;99.90;;;;;;2067988;28;20104;-75
2023/11/09 03:32:57;;;;;;;11.32;6.93;;;6.40;99.90;;;;;;2069540;28;20030;-75
2023/11/09 03:33:58;;;;;;;9.98;6.72;;;6.40;99.90;;;;;;2070924;28;20053;-75
2023/11/09 03:34:58;;;;;;;10.75;6.50;;;6.40;99.90;;;;;;2076191;28;20017;-76
2023/11/09 03:36:00;;;;;;;11.82;6.38;;;6.40;99.90;;;;;;2069199;28;20527;-77
2023/11/09 03:37:00;;;;;;;12.82;6.65;;;6.40;99.90;;;;;;2064377;28;20026;-75
2023/11/09 03:38:01;;;;;;;10.65;6.80;;;6.50;99.90;;;;;;2066170;28;20030;-75
2023/11/09 03:39:03;;;;;;;10.35;6.82;;;6.40;99.90;;;;;;2060785;28;20043;-75
2023/11/09 03:40:06;;;;;;;11.85;6.55;;;6.50;99.90;;;;;;2062954;28;20509;-75
2023/11/09 03:41:10;;;;;;;11.82;6.63;;;6.50;99.90;;;;;;2066624;28;20065;-75
2023/11/09 03:42:11;;;;;;;11.00;6.45;;;6.50;99.90;;;;;;2069302;28;20037;-75
2023/11/09 03:43:12;;;;;;;9.88;6.40;;;6.50;99.90;;;;;;2059301;28;20382;-74
2023/11/09 03:44:13;;;;;;;10.07;6.70;;;6.60;99.90;;;;;;2063450;28;20061;-76
2023/11/09 03:45:14;;;;;;;10.15;6.40;;;6.60;99.90;;;;;;2074568;28;20022;-76
2023/11/09 03:46:14;;;;;;;10.48;6.85;;;6.60;99.90;;;;;;2078547;28;20067;-76
2023/11/09 03:47:15;;;;;;;11.43;6.68;;;6.70;99.90;;;;;;2078979;28;20025;-75
2023/11/09 03:48:15;;;;;;;10.85;7.13;;;6.70;99.90;;;;;;2059869;28;20102;-75
2023/11/09 03:49:16;;;;;;;9.48;6.88;;;6.70;99.90;;;;;;2054279;28;20101;-75
2023/11/09 03:50:17;;;;;;;10.90;6.90;;;6.70;99.90;;;;;;2066999;28;20030;-75
2023/11/09 03:51:17;;;;;;;10.20;6.57;;;6.80;99.90;;;;;;2068603;28;20113;-77
2023/11/09 03:52:18;;;;;;;10.52;6.95;;;6.70;99.90;;;;;;2070618;28;20494;-76
2023/11/09 03:53:19;;;;;;;11.30;6.85;;;6.70;99.90;;;;;;2079780;28;20021;-79
2023/11/09 03:54:19;;;;;;;10.13;6.43;;;6.80;99.90;;;;;;2087903;28;20017;-76
2023/11/09 03:55:20;;;;;;;9.35;6.32;;;6.70;99.90;;;;;;2087770;28;20025;-75
2023/11/09 03:56:22;;;;;;;11.85;6.97;;;6.70;99.90;;;;;;2084069;28;20291;-75
2023/11/09 03:57:23;;;;;;;11.32;6.75;;;6.80;99.90;;;;;;2087442;28;20020;-80
2023/11/09 03:58:24;;;;;;;11.02;6.75;;;6.70;99.90;;;;;;2088033;28;20064;-80
2023/11/09 03:59:24;;;;;;;13.35;6.90;;;6.70;99.90;;;;;;2084494;28;20028;-80
2023/11/09 04:00:25;;;;;;;10.02;6.75;;;6.70;99.90;;;;;;2087513;28;20491;-81
2023/11/09 04:01:25;;;;;;;11.05;6.93;;;6.70;99.90;;;;;;2071653;28;20044;-81
2023/11/09 04:02:26;;;;;;;11.73;7.25;;;6.70;99.90;;;;;;2068092;28;20069;-80
2023/11/09 04:03:27;;;;;;;11.48;6.93;;;6.70;99.90;;;;;;2075252;28;20044;-80
2023/11/09 04:04:27;;;;;;;12.23;7.00;;;6.70;99.90;;;;;;2079404;28;20037;-80
2023/11/09 04:05:28;;;;;;;12.98;7.03;;;6.70;99.90;;;;;;2081024;28;20067;-80
2023/11/09 04:06:29;;;;;;;10.43;6.93;;;6.60;99.90;;;;;;2085051;28;20395;-80
2023/11/09 04:07:30;;;;;;;10.55;6.93;;;6.60;99.90;;;;;;2088382;28;20143;-80
2023/11/09 04:08:30;;;;;;;13.05;7.20;;;6.70;99.90;;;;;;2085977;28;20036;-80
2023/11/09 04:09:31;;;;;;;10.48;7.13;;;6.70;99.90;;;;;;2086649;28;20056;-80
2023/11/09 04:10:32;;;;;;;10.90;6.60;;;6.70;99.90;;;;;;2088541;28;20044;-81
2023/11/09 04:11:33;;;;;;;13.40;7.43;;;6.70;99.90;;;;;;2077465;28;20109;-81
2023/11/09 04:12:34;;;;;;;11.68;7.20;;;6.70;99.90;;;;;;2075347;28;20033;-80
2023/11/09 04:13:34;;;;;;;12.25;7.05;;;6.70;99.90;;;;;;2087799;28;20032;-81
2023/11/09 04:14:35;;;;;;;11.63;7.10;;;6.70;99.90;;;;;;2084549;28;20082;-82
2023/11/09 04:15:40;;;;;;;10.40;6.93;;;6.70;99.90;;;;;;2084285;28;20163;-81
2023/11/09 04:16:41;;;;;;;11.05;7.00;;;6.70;99.90;;;;;;2085307;28;20032;-80
2023/11/09 04:17:41;;;;;;;11.13;7.05;;;6.60;99.90;;;;;;2078933;28;20032;-80
2023/11/09 04:18:42;;;;;;;10.57;6.85;;;6.70;99.90;;;;;;2078116;28;20532;-80
2023/11/09 04:19:42;;;;;;;12.68;7.18;;;6.60;99.90;;;;;;2084775;28;20048;-80
2023/11/09 04:20:43;;;;;;;13.88;7.43;;;6.70;99.90;;;;;;2079006;28;20108;-80
2023/11/09 04:21:44;;;;;;;11.90;7.25;;;6.70;99.90;;;;;;2078443;28;20434;-81
2023/11/09 04:22:44;;;;;;;12.80;7.28;;;6.70;99.90;;;;;;2075947;28;20025;-80
2023/11/09 04:23:45;;;;;;;11.65;6.93;;;6.70;99.90;;;;;;2078985;28;20033;-80
2023/11/09 04:24:46;;;;;;;12.18;7.00;;;6.70;99.90;;;;;;2078397;28;20032;-80
2023/11/09 04:25:46;;;;;;;13.68;7.43;;;6.70;99.90;;;;;;2067276;28;20033;-80
2023/11/09 04:26:47;;;;;;;12.63;7.93;;;6.70;99.90;;;;;;2078968;28;20048;-80
2023/11/09 04:27:49;;;;;;;11.00;7.43;;;6.60;99.90;;;;;;2087316;28;20024;-80
2023/11/09 04:28:53;;;;;;;11.65;7.05;;;6.60;99.90;;;;;;2070953;28;20033;-80
2023/11/09 04:29:54;;;;;;;10.88;7.43;;;6.60;99.90;;;;;;2063675;28;20018;-80
2023/11/09 04:30:55;;;;;;;12.40;7.32;;;6.60;99.90;;;;;;2078493;28;20017;-80
2023/11/09 04:31:55;;;;;;;10.15;7.35;;;6.60;99.90;;;;;;2084388;28;20040;-80
2023/11/09 04:32:57;;;;;;;11.45;7.50;;;6.60;99.90;;;;;;2078556;28;20120;-81
2023/11/09 04:34:08;;;;;;;14.50;7.82;;;6.60;99.90;;;;;;2071334;28;20460;-80
2023/11/09 04:35:09;;;;;;;13.75;8.07;;;6.60;99.90;;;;;;2078873;28;20047;-80
2023/11/09 04:36:10;;;;;;;12.13;7.65;;;6.60;99.90;;;;;;2088184;28;20201;-80
2023/11/09 04:37:14;;;;;;;13.35;8.18;;;6.60;99.90;;;;;;2085148;28;20037;-80
2023/11/09 04:38:15;;;;;;;10.68;7.88;;;6.50;99.90;;;;;;2088087;28;20429;-80
2023/11/09 04:39:27;;;;;;;14.23;8.60;;;6.50;99.90;;;;;;2077942;28;20120;-81
2023/11/09 04:40:29;;;;;;;13.18;8.48;;;6.50;99.90;;;;;;2072217;28;20075;-81
2023/11/09 04:41:29;;;;;;;12.95;8.02;;;6.50;99.90;;;;;;2075896;28;20033;-80
2023/11/09 04:42:30;;;;;;;11.85;7.95;;;6.50;99.90;;;;;;2077363;28;20072;-80
2023/11/09 04:43:32;;;;;;;15.63;8.57;;;6.50;99.90;;;;;;2076782;28;20053;-80
2023/11/09 04:44:32;;;;;;;13.65;8.27;;;6.50;99.90;;;;;;2087483;28;20509;-81
2023/11/09 04:45:35;;;;;;;13.45;8.40;;;6.40;99.90;;;;;;2076374;28;20045;-80
2023/11/09 04:46:40;;;;;;;12.13;8.65;;;6.40;99.90;;;;;;2077257;28;20022;-81
2023/11/09 04:47:45;;;;;;;14.50;8.90;;;6.40;99.90;;;;;;2087648;28;20484;-80
2023/11/09 04:48:55;;;;;;;13.77;8.98;;;6.40;99.90;;;;;;2087721;28;20017;-80
2023/11/09 04:50:00;;;;;;;14.23;8.38;;;6.40;99.90;;;;;;2084092;28;20077;-80
2023/11/09 04:51:03;;;;;;;19.20;9.23;;;6.40;99.90;;;;;;2074145;28;20037;-79
2023/11/09 04:52:05;;;;;;;12.45;8.75;;;6.40;99.90;;;;;;2077546;28;20024;-79
2023/11/09 04:53:19;;;;;;;13.73;8.80;;;6.40;99.90;;;;;;2078481;28;20021;-80
2023/11/09 04:54:20;;;;;;;16.45;9.13;;;6.40;99.90;;;;;;2078486;28;20024;-79
2023/11/09 04:55:31;;;;;;;14.00;8.85;;;6.30;99.90;;;;;;2066681;28;20064;-79
2023/11/09 04:56:42;;;;;;;13.68;8.77;;;6.30;99.90;;;;;;2076388;28;20041;-80
2023/11/09 05:06:48;;;;;;;13.23;8.52;;;6.30;99.90;;;;;;2083478;28;20529;-79
2023/11/09 05:06:59;;;;;;;13.95;8.95;;;6.30;99.90;;;;;;2082822;28;20568;-78
2023/11/09 05:08:00;;;;;;;14.32;8.52;;;6.30;99.90;;;;;;2074118;28;20026;-79
2023/11/09 05:09:02;;;;;;;12.65;8.23;;;6.30;99.90;;;;;;2083043;28;20025;-80
2023/11/09 05:10:03;;;;;;;17.05;9.30;;;6.40;99.90;;;;;;2084869;28;20029;-80
2023/11/09 05:11:04;;;;;;;14.57;8.88;;;6.40;99.90;;;;;;2075074;28;20540;-80
2023/11/09 05:12:05;;;;;;;22.48;10.60;;;6.40;99.90;;;;;;2084371;28;20032;-80
2023/11/09 05:13:06;;;;;;;16.05;9.10;;;6.40;99.90;;;;;;2084576;28;20632;-80
2023/11/09 05:14:06;;;;;;;14.18;8.85;;;6.40;99.90;;;;;;2076731;28;20029;-80
2023/11/09 05:15:07;;;;;;;14.40;8.68;;;6.40;99.90;;;;;;2061426;28;20719;-79
2023/11/09 05:16:08;;;;;;;14.88;8.48;;;6.40;99.90;;;;;;2071282;28;20037;-80
2023/11/09 05:17:13;;;;;;;13.18;8.80;;;6.50;99.90;;;;;;2085948;28;20009;-79
2023/11/09 05:18:14;;;;;;;14.00;8.90;;;6.50;99.90;;;;;;2085564;28;20036;-80
2023/11/09 05:19:15;;;;;;;13.88;9.18;;;6.50;99.90;;;;;;2075127;28;20059;-79
2023/11/09 05:20:15;;;;;;;14.07;9.20;;;6.50;99.90;;;;;;2075386;28;20044;-79
2023/11/09 05:21:16;;;;;;;14.05;8.57;;;6.60;99.90;;;;;;2084021;28;20395;-80
2023/11/09 05:22:17;;;;;;;11.48;8.30;;;6.60;99.90;;;;;;2083326;28;20467;-78
2023/11/09 05:23:18;;;;;;;13.27;8.18;;;6.60;99.90;;;;;;2086916;28;20256;-79
2023/11/09 05:24:19;;;;;;;12.93;7.57;;;6.70;99.90;;;;;;2083901;28;20025;-80
2023/11/09 05:25:19;;;;;;;11.95;7.50;;;6.70;99.90;;;;;;2078641;28;20037;-81
2023/11/09 05:26:21;;;;;;;13.82;7.85;;;6.70;99.90;;;;;;2077958;28;20380;-80
2023/11/09 05:27:22;;;;;;;15.20;9.20;;;6.70;99.90;;;;;;2074423;28;20029;-79
2023/11/09 05:28:23;;;;;;;14.20;7.50;;;6.70;99.90;;;;;;2078271;28;20028;-78
2023/11/09 05:29:23;;;;;;;11.32;7.68;;;6.80;99.90;;;;;;2078363;28;20494;-79